• Join FlightAware (Why Join?)
  • Login
  • US Flag 
05:45PM EDT


 

Airport Tracker/Info


-or-


 

Live Flight TrackerFlight Track Log ✈ DAL2033 ✈ 22-May-2013 ✈ KALB - KATL

Flight Track Log - Related Links

Times and Time Zones

All times are in EDT time to prevent confusion due to time zone crossing. See the DAL2033 flight status page for this flight to view local times or setup timezone preferences in your user account.

Time Position Orientation Groundspeed Altitude Reporting Facility
EDT Latitude Longitude Course Direction KTS MPH feet Rate Location/Type
06:17PM 42.6858 -73.8183 194° South 205 236 2,100  Level Boston Center
06:18PM 42.7036 -73.8922 288° West 275 316 4,300 2,340 Climbing Boston Center
06:19PM 42.8209 -74.2209 279° West  Level FlightAware Approximate
06:19PM 42.7489 -73.9386 323° Northwest 283 326 6,400  Level Boston Center
06:20PM 42.8398 -74.3721 283° West  Level FlightAware Approximate
06:20PM 42.8064 -74.0022 321° Northwest 283 326 8,700  Level Boston Center
06:21PM 42.8648 -74.5219 283° West  Level FlightAware Approximate
06:21PM 42.8661 -74.0661 322° Northwest 283 326 10,600  Level Boston Center
06:22PM 42.9013 -74.6611 282° West  Level FlightAware Approximate
06:22PM 42.9503 -74.1450 326° Northwest 301 346 11,800  Level Boston Center
06:23PM 43.0414 -74.1844 342° North 354 407 13,000 1,740 Climbing Boston Center
06:24PM 43.1594 -74.2419 340° North 402 463 15,300 1,980 Climbing Boston Center
06:25PM 43.2586 -74.2903 340° North 416 479 17,000 2,280 Climbing Boston Center
06:26PM 43.3806 -74.3569 338° Northwest 426 490 19,900 2,460 Climbing Boston Center
06:27PM 43.4369 -74.4644 306° West 396 456 22,000 1,560 Climbing Boston Center
06:28PM 43.4219 -74.6042 262° West 317 365 23,100 960 Climbing Boston Center
06:29PM 43.4006 -74.7433 258° West 341 392 24,000 1,020 Climbing Boston Center
06:30PM 43.3786 -74.8883 258° West 372 428 25,200 1,140 Climbing Boston Center
06:31PM 43.3569 -75.0303 258° West 384 442 26,300 960 Climbing Boston Center
06:32PM 43.3347 -75.1692 258° West 391 450 27,200 1,080 Climbing Boston Center
06:33PM 43.3119 -75.3308 259° West 403 464 28,500 900 Climbing Boston Center
06:34PM 43.2878 -75.4667 256° West 409 471 29,100 600 Climbing Boston Center
06:35PM 43.2586 -75.6133 255° West 409 471 29,800 540 Climbing Boston Center
06:36PM 43.2233 -75.7569 251° West 409 471 30,200 600 Climbing Boston Center
06:37PM 43.1856 -75.9058 251° West 415 478 31,000 720 Climbing Boston Center
06:38PM 43.1475 -76.0575 251° West 420 483 31,700 240 Climbing Boston Center
06:40PM 43.0525 -76.4233 251° West 427 491 32,000 60 Climbing Cleveland Center
06:41PM 43.0139 -76.5708 250° West 422 486 32,000  Level Cleveland Center
06:42PM 42.9772 -76.7178 251° West 417 480 32,000  Level Cleveland Center
06:43PM 42.9361 -76.8681 250° West 417 480 32,000  Level Cleveland Center
06:44PM 42.8950 -77.0150 249° West 417 480 32,000  Level Cleveland Center
06:45PM 42.8492 -77.1592 247° West 412 474 32,000  Level Cleveland Center
06:46PM 42.8033 -77.2975 246° West 412 474 32,000  Level Cleveland Center
06:47PM 42.7569 -77.4358 245° Southwest 407 468 32,000  Level Cleveland Center
06:48PM 42.7225 -77.5478 247° West 402 463 32,000  Level Cleveland Center
06:49PM 42.6622 -77.7200 245° Southwest 402 463 32,000  Level Cleveland Center
06:50PM 42.6239 -77.8489 248° West 407 468 32,000  Level Cleveland Center
06:51PM 42.5769 -77.9892 246° West 407 468 32,000  Level Cleveland Center
06:52PM 42.5322 -78.1289 247° West 407 468 32,000  Level Cleveland Center
06:53PM 42.4869 -78.2686 246° West 407 468 32,000  Level Cleveland Center
06:54PM 42.4397 -78.4083 245° Southwest 407 468 32,000  Level Cleveland Center
06:55PM 42.3922 -78.5422 244° Southwest 402 463 32,000  Level Cleveland Center
06:56PM 42.3444 -78.6814 245° Southwest 402 463 32,000  Level Cleveland Center
06:57PM 42.2967 -78.8231 246° West 402 463 32,000  Level Cleveland Center
06:58PM 42.2467 -78.9619 244° Southwest 402 463 32,000  Level Cleveland Center
06:59PM 42.1964 -79.1006 244° Southwest 407 468 32,000  Level Cleveland Center
07:00PM 42.1586 -79.2414 250° West 402 463 32,000  Level Cleveland Center
07:01PM 42.1206 -79.3850 250° West 402 463 32,000  Level Cleveland Center
07:02PM 42.0844 -79.5283 251° West 402 463 32,000  Level Cleveland Center
07:03PM 42.0461 -79.6717 250° West 409 471 32,000  Level Cleveland Center
07:04PM 42.0094 -79.8147 251° West 409 471 32,000  Level Cleveland Center
07:05PM 41.9689 -79.9744 251° West 409 471 32,000  Level Cleveland Center
07:06PM 41.9297 -80.1169 250° West 406 467 32,000  Level Cleveland Center
07:07PM 41.8553 -80.2208 226° Southwest 391 450 32,000  Level Cleveland Center
07:08PM 41.7594 -80.2908 209° Southwest 391 450 32,000  Level Cleveland Center
07:09PM 41.6867 -80.3803 223° Southwest 398 458 32,000  Level Cleveland Center
07:10PM 41.6139 -80.4914 229° Southwest 398 458 32,000  Level Cleveland Center
07:11PM 41.5411 -80.5997 228° Southwest 398 458 32,000  Level Cleveland Center
07:12PM 41.4681 -80.7106 229° Southwest 398 458 32,000  Level Cleveland Center
07:13PM 41.3906 -80.8211 227° Southwest 411 473 32,000  Level Cleveland Center
07:14PM 41.3092 -80.9425 228° Southwest 411 473 32,000  Level Cleveland Center
07:15PM 41.2314 -81.0553 227° Southwest 406 467 32,000  Level Cleveland Center
07:16PM 41.1558 -81.1650 228° Southwest 406 467 32,000  Level Cleveland Center
07:17PM 41.0822 -81.2744 228° Southwest 406 467 32,000  Level Cleveland Center
07:18PM 41.0044 -81.3783 225° Southwest 406 467 32,000  Level Cleveland Center
07:19PM 40.9308 -81.4900 229° Southwest 406 467 32,000  Level Cleveland Center
07:20PM 40.8611 -81.5881 227° Southwest 411 473 32,000  Level Cleveland Center
07:22PM 40.6992 -81.8186 227° Southwest 403 464 32,000  Level Indianapolis Center
07:23PM 40.6211 -81.9283 227° Southwest 404 465 32,000  Level Indianapolis Center
07:24PM 40.5292 -82.0075 213° Southwest 403 464 32,000  Level Indianapolis Center
07:25PM 40.4197 -82.0392 192° South 398 458 32,000  Level Indianapolis Center
07:26PM 40.2928 -82.0703 191° South 395 455 32,000  Level Indianapolis Center
07:27PM 40.1844 -82.0969 191° South 393 452 32,000  Level Indianapolis Center
07:28PM 40.0750 -82.1219 190° South 394 453 32,000  Level Indianapolis Center
07:29PM 39.9664 -82.1481 190° South 393 452 32,000  Level Indianapolis Center
07:30PM 39.8569 -82.1725 190° South 393 452 32,000  Level Indianapolis Center
07:31PM 39.7467 -82.1978 190° South 397 457 32,000  Level Indianapolis Center
07:32PM 39.6381 -82.2222 190° South 392 451 32,000  Level Indianapolis Center
07:34PM 39.5286 -82.2464 190° South 395 455 32,000  Level Indianapolis Center
07:35PM 39.4294 -82.2672 189° South 395 455 32,000  Level Indianapolis Center
07:36PM 39.2994 -82.2947 189° South 398 458 32,000  Level Indianapolis Center
07:37PM 39.1917 -82.3206 191° South 396 456 32,000  Level Indianapolis Center
07:38PM 39.0842 -82.3447 190° South 394 453 32,000  Level Indianapolis Center
07:39PM 38.9736 -82.3708 190° South 403 464 32,000  Level Indianapolis Center
07:40PM 38.8650 -82.3956 190° South 399 459 32,000  Level Indianapolis Center
07:41PM 38.7550 -82.4200 190° South 402 463 32,000  Level Indianapolis Center
07:42PM 38.6442 -82.4456 190° South 405 466 32,000  Level Indianapolis Center
07:43PM 38.5342 -82.4700 190° South 404 465 32,000  Level Indianapolis Center
07:44PM 38.4128 -82.4961 190° South 399 459 32,000  Level Indianapolis Center
07:45PM 38.3019 -82.5203 190° South 402 463 32,000  Level Indianapolis Center
07:46PM 38.1922 -82.5461 190° South 402 463 32,000  Level Indianapolis Center
07:47PM 38.0633 -82.5778 191° South 402 463 32,000  Level Indianapolis Center
07:48PM 37.9503 -82.6011 189° South 409 471 32,000  Level Indianapolis Center
07:49PM 37.8386 -82.6267 190° South 409 471 32,000  Level Indianapolis Center
07:50PM 37.7267 -82.6503 189° South 408 470 32,000  Level Indianapolis Center
07:51PM 37.6133 -82.6758 190° South 411 473 32,000  Level Indianapolis Center
07:52PM 37.5150 -82.7522 212° Southwest 416 479 32,000  Level Indianapolis Center
07:53PM 37.4200 -82.8333 214° Southwest 413 475 32,000  Level Indianapolis Center
07:54PM 37.3286 -82.9186 217° Southwest 412 474 32,000  Level Indianapolis Center
07:55PM 37.2222 -83.0208 217° Southwest 416 479 32,000  Level Indianapolis Center
07:56PM 37.1342 -83.1144 220° Southwest 418 481 32,000  Level Indianapolis Center
07:57PM 37.0464 -83.2075 220° Southwest 419 482 32,000  Level Indianapolis Center
07:58PM 36.9619 -83.3022 222° Southwest 414 476 32,000  Level Indianapolis Center
07:59PM 36.8775 -83.3989 222° Southwest 415 478 32,000  Level Indianapolis Center
08:00PM 36.7925 -83.4947 222° Southwest 414 476 32,000  Level Indianapolis Center
08:01PM 36.6939 -83.6025 221° Southwest 408 470 32,000  Level Indianapolis Center
08:02PM 36.6069 -83.6964 221° Southwest 411 473 32,000  Level Indianapolis Center
08:03PM 36.5203 -83.7900 221° Southwest 414 476 32,000  Level Indianapolis Center
08:04PM 36.4239 -83.8275 197° South 408 470 32,000  Level Indianapolis Center
08:05PM 36.2881 -83.7892 167° South 411 473 32,000  Level Indianapolis Center
08:06PM 36.1747 -83.7550 166° South 413 475 32,000  Level Indianapolis Center
08:07PM 36.0619 -83.7203 166° South 415 478 32,000  Level Atlanta Center
08:08PM 35.9514 -83.6872 166° South 415 478 32,000  Level Atlanta Center
08:09PM 35.8344 -83.6519 166° South 415 478 32,000  Level Atlanta Center
08:10PM 35.7156 -83.6525 180° South 415 478 32,000  Level Atlanta Center
08:11PM 35.6133 -83.6708 188° South 415 478 32,000  Level Atlanta Center
08:12PM 35.4967 -83.6969 190° South 421 484 32,000 -300 Level Atlanta Center
08:13PM 35.3800 -83.7228 190° South 426 490 31,500 -1,260 Descending Atlanta Center
08:14PM 35.2653 -83.7489 191° South 426 490 29,500 -2,100 Descending Atlanta Center
08:15PM 35.1442 -83.7719 189° South 431 496 27,400 -1,800 Descending Atlanta Center
08:16PM 35.0253 -83.7978 190° South 431 496 26,000 -1,500 Descending Atlanta Center
08:17PM 34.9128 -83.8261 192° South 424 488 24,500 -1,020 Descending Atlanta Center
08:18PM 34.7875 -83.8492 189° South 418 481 24,000 -300 Descending Atlanta Center
08:19PM 34.6750 -83.8694 188° South 413 475 24,000 -720 Level Atlanta Center
08:20PM 34.5622 -83.8950 191° South 413 475 22,600 -2,700 Descending Atlanta Center
08:21PM 34.4475 -83.9203 190° South 413 475 18,600 -3,300 Descending Atlanta Center
08:22PM 34.3328 -83.9431 189° South 424 488 16,000 -2,700 Descending Atlanta Center
08:23PM 34.2283 -83.9658 190° South 410 472 13,200 -1,680 Descending Atlanta Center
08:24PM 34.1408 -83.9886 192° South 350 403 12,700 -900 Descending Atlanta Center
08:25PM 34.0667 -83.9833 177° South 290 334 11,500 -1,380 Descending Atlanta TRACON
08:26PM 33.9833 -83.9833 180° South 283 326 10,000 -1,260 Descending Atlanta TRACON
08:27PM 33.9000 -83.9833 180° South 278 320 9,000 -540 Descending Atlanta TRACON
08:28PM 33.8361 -83.9764 175° South 284 327 9,000 -300 Level Atlanta Center
08:29PM 33.7586 -83.9689 175° South 279 321 8,500 -1,080 Descending Atlanta Center
08:30PM 33.6772 -83.9689 180° South 273 314 6,900 -780 Descending Atlanta Center
08:31PM 33.6272 -84.0314 226° Southwest 233 268 7,000 -780 Climbing Atlanta Center
08:33PM 33.6333 -84.2000 273° West 232 267 4,500 -1,200 Descending Atlanta TRACON
08:34PM 33.6333 -84.2667 270° West 212 244 3,500 -1,080 Descending Atlanta TRACON
08:35PM 33.6333 -84.3167 270° West 188 216 2,500 -1,020 Descending Atlanta TRACON